createdAt,value
2023-03-15T00:00:49.666Z,0.8
2023-03-15T00:02:03.934Z,0.9
2023-03-15T00:04:32.633Z,0.8
2023-03-15T00:05:46.962Z,0.9
2023-03-15T00:07:01.228Z,1.2
2023-03-15T00:08:15.650Z,1.1
2023-03-15T00:09:30.071Z,1
2023-03-15T00:11:58.678Z,0.9
2023-03-15T00:13:12.941Z,1.1
2023-03-15T00:14:27.357Z,0.7
2023-03-15T00:15:41.681Z,0.7
2023-03-15T00:16:55.959Z,1.1
2023-03-15T00:18:10.383Z,1.7
2023-03-15T00:19:24.785Z,1
2023-03-15T00:20:39.123Z,1.1
2023-03-15T00:21:53.389Z,0.8
2023-03-15T00:23:07.682Z,1
2023-03-15T00:24:22.092Z,1.1
2023-03-15T00:25:36.404Z,0.7
2023-03-15T00:26:50.700Z,0.8
2023-03-15T00:28:04.979Z,1
2023-03-15T00:29:19.373Z,0.9
2023-03-15T00:30:33.705Z,1.3
2023-03-15T00:31:47.977Z,0.7
2023-03-15T00:33:02.409Z,1
2023-03-15T00:34:16.817Z,1.3
2023-03-15T00:35:31.138Z,1.5
2023-03-15T00:37:59.708Z,1.1
2023-03-15T00:39:14.101Z,1
2023-03-15T00:40:28.424Z,1
2023-03-15T00:41:42.715Z,0.9
2023-03-15T00:42:57.114Z,1
2023-03-15T00:44:11.527Z,1
2023-03-15T00:45:25.857Z,1
2023-03-15T00:46:40.133Z,1.1
2023-03-15T00:49:08.820Z,1.4
2023-03-15T00:50:23.150Z,0.9
2023-03-15T00:51:37.421Z,1.1
2023-03-15T00:52:51.854Z,0.8
2023-03-15T00:54:06.253Z,0.8
2023-03-15T00:55:20.582Z,1.2
2023-03-15T00:56:34.862Z,0.9
2023-03-15T00:57:49.148Z,1.2
2023-03-15T00:59:03.556Z,0.9
2023-03-15T01:00:17.879Z,1.2
2023-03-15T01:01:32.157Z,0.7
2023-03-15T01:02:46.437Z,0.9
2023-03-15T01:04:00.835Z,1.1
2023-03-15T01:05:15.157Z,0.9
2023-03-15T01:06:29.453Z,0.7
2023-03-15T01:07:43.874Z,0.9
2023-03-15T01:08:58.278Z,0.8
2023-03-15T01:10:12.598Z,1
2023-03-15T01:11:26.871Z,1
2023-03-15T01:12:41.160Z,0.9
2023-03-15T01:13:55.566Z,0.9
2023-03-15T01:15:09.896Z,0.9
2023-03-15T01:16:24.176Z,0.9
2023-03-15T01:17:38.461Z,1
2023-03-15T01:18:52.870Z,1
2023-03-15T01:20:07.163Z,0.9
2023-03-15T01:21:21.443Z,1
2023-03-15T01:22:35.848Z,1
2023-03-15T01:23:50.118Z,1.2
2023-03-15T01:25:04.520Z,1
2023-03-15T01:26:18.859Z,0.9
2023-03-15T01:28:47.416Z,0.7
2023-03-15T01:30:01.821Z,1.1
2023-03-15T01:31:16.147Z,1.2
2023-03-15T01:32:30.435Z,1.4
2023-03-15T01:33:44.752Z,1.3
2023-03-15T01:34:59.024Z,0.8
2023-03-15T01:36:13.441Z,0.9
2023-03-15T01:37:27.765Z,1.2
2023-03-15T01:38:42.034Z,1
2023-03-15T01:39:56.325Z,0.9
2023-03-15T01:42:25.064Z,1.4
2023-03-15T01:44:53.659Z,1.2
2023-03-15T01:46:07.948Z,1.1
2023-03-15T01:47:22.259Z,1.1
2023-03-15T01:48:36.577Z,1.2
2023-03-15T01:49:50.865Z,1.2
2023-03-15T01:51:05.073Z,1.3
2023-03-15T01:52:19.370Z,1.4
2023-03-15T01:53:33.770Z,1.2
2023-03-15T01:54:48.019Z,1.4
2023-03-15T01:56:02.246Z,1.3
2023-03-15T01:57:16.560Z,1.2
2023-03-15T01:58:30.850Z,1.2
2023-03-15T01:59:45.211Z,1.2
2023-03-15T02:00:59.540Z,1
2023-03-15T02:02:13.909Z,1.2
2023-03-15T02:03:28.194Z,1.1
2023-03-15T02:04:42.476Z,1.3
2023-03-15T02:05:56.892Z,1.1
2023-03-15T02:07:11.217Z,1.3
2023-03-15T02:08:25.496Z,1.3
2023-03-15T02:10:54.316Z,1.3
2023-03-15T02:12:08.651Z,1.3
2023-03-15T02:13:22.928Z,1.6
2023-03-15T02:14:37.202Z,1.6
2023-03-15T02:15:51.629Z,1.5
2023-03-15T02:17:05.948Z,1.3
2023-03-15T02:18:20.217Z,1.7
2023-03-15T02:19:34.508Z,1.6
2023-03-15T02:20:48.920Z,1.6
2023-03-15T02:22:03.239Z,1.6
2023-03-15T02:23:17.530Z,1.8
2023-03-15T02:24:31.798Z,1.9
2023-03-15T02:25:46.218Z,1.8
2023-03-15T02:27:00.536Z,1.8
2023-03-15T02:28:14.823Z,1.5
2023-03-15T02:29:29.108Z,1.5
2023-03-15T02:30:43.503Z,2.1
2023-03-15T02:31:57.833Z,1.5
2023-03-15T02:33:12.109Z,1.9
2023-03-15T02:34:26.547Z,2
2023-03-15T02:35:40.951Z,1.6
2023-03-15T02:36:55.267Z,1.5
2023-03-15T02:38:09.557Z,1.8
2023-03-15T02:39:23.973Z,1.9
2023-03-15T02:40:38.389Z,1.8
2023-03-15T02:41:52.715Z,1.8
2023-03-15T02:43:06.998Z,1.9
2023-03-15T02:44:21.283Z,2
2023-03-15T02:45:35.673Z,2.3
2023-03-15T02:46:50.013Z,2.1
2023-03-15T02:48:04.293Z,1.8
2023-03-15T02:49:18.721Z,1.8
2023-03-15T02:50:33.116Z,2
2023-03-15T02:51:47.436Z,2.3
2023-03-15T02:53:01.728Z,2.4
2023-03-15T02:54:16.007Z,2.1
2023-03-15T02:55:30.425Z,2.2
2023-03-15T02:56:44.737Z,2.1
2023-03-15T02:57:59.027Z,2.2
2023-03-15T02:59:13.422Z,2.6
2023-03-15T03:00:27.828Z,2
2023-03-15T03:01:42.116Z,1.7
2023-03-15T03:02:56.345Z,1.6
2023-03-15T03:04:10.559Z,1.9
2023-03-15T03:05:24.794Z,2
2023-03-15T03:06:39.095Z,2.1
2023-03-15T03:07:53.333Z,1.6
2023-03-15T03:09:07.555Z,1.9
2023-03-15T03:10:21.791Z,2.1
2023-03-15T03:11:36.015Z,2.4
2023-03-15T03:12:50.429Z,2
2023-03-15T03:14:04.736Z,2.1
2023-03-15T03:16:33.307Z,1.8
2023-03-15T03:17:47.709Z,2.6
2023-03-15T03:20:16.307Z,2.2
2023-03-15T03:21:30.743Z,2.6
2023-03-15T03:22:45.150Z,2
2023-03-15T03:23:59.464Z,2.1
2023-03-15T03:25:13.747Z,2.4
2023-03-15T03:26:28.171Z,1.9
2023-03-15T03:27:42.576Z,2
2023-03-15T03:28:56.909Z,2
2023-03-15T03:30:11.184Z,1.9
2023-03-15T03:31:25.466Z,2.2
2023-03-15T03:32:39.867Z,1.7
2023-03-15T03:33:54.199Z,2.1
2023-03-15T03:35:08.483Z,1.9
2023-03-15T03:36:22.891Z,2.6
2023-03-15T03:37:37.286Z,1.7
2023-03-15T03:38:51.624Z,2
2023-03-15T03:40:05.902Z,2.2
2023-03-15T03:41:20.169Z,1.9
2023-03-15T03:42:34.579Z,1.6
2023-03-15T03:43:48.917Z,2.2
2023-03-15T03:46:17.466Z,2.1
2023-03-15T03:47:31.885Z,1.7
2023-03-15T03:48:46.196Z,1.8
2023-03-15T03:50:00.487Z,2.4
2023-03-15T03:51:14.774Z,2.5
2023-03-15T03:52:29.167Z,2.5
2023-03-15T03:53:43.501Z,2.5
2023-03-15T03:54:57.767Z,2.1
2023-03-15T03:56:12.204Z,2
2023-03-15T03:57:26.608Z,2.2
2023-03-15T03:58:40.929Z,2
2023-03-15T03:59:55.205Z,2.2
2023-03-15T04:01:09.627Z,2.6
2023-03-15T04:02:24.049Z,2.1
2023-03-15T04:03:38.366Z,1.8
2023-03-15T04:04:52.642Z,2.8
2023-03-15T04:06:06.934Z,2.2
2023-03-15T04:07:21.326Z,1.8
2023-03-15T04:08:35.655Z,1.8
2023-03-15T04:09:49.947Z,2
2023-03-15T04:11:04.290Z,2.8
2023-03-15T04:12:18.596Z,2.1
2023-03-15T04:13:32.821Z,1.8
2023-03-15T04:14:47.050Z,2
2023-03-15T04:16:01.272Z,1.8
2023-03-15T04:17:15.501Z,2.1
2023-03-15T04:18:29.806Z,1.9
2023-03-15T04:19:44.056Z,1.8
2023-03-15T04:20:58.281Z,1.8
2023-03-15T04:22:12.502Z,2.3
2023-03-15T04:23:26.785Z,2
2023-03-15T04:24:41.183Z,1.9
2023-03-15T04:25:55.507Z,2.4
2023-03-15T04:27:09.791Z,1.9
2023-03-15T04:28:24.085Z,2.2
2023-03-15T04:29:38.479Z,2.1
2023-03-15T04:30:52.805Z,2
2023-03-15T04:32:07.078Z,2.2
2023-03-15T04:33:21.517Z,2.2
2023-03-15T04:34:35.922Z,1.9
2023-03-15T04:37:04.530Z,2.1
2023-03-15T04:38:18.801Z,2
2023-03-15T04:39:33.209Z,2
2023-03-15T04:40:47.537Z,2
2023-03-15T04:42:01.820Z,2.1
2023-03-15T04:43:16.242Z,1.6
2023-03-15T04:44:30.639Z,1.8
2023-03-15T04:45:44.919Z,1.9
2023-03-15T04:46:59.150Z,2
2023-03-15T04:49:27.649Z,2.3
2023-03-15T04:50:42.062Z,2.3
2023-03-15T04:53:10.601Z,1.6
2023-03-15T04:54:24.928Z,2
2023-03-15T04:55:39.340Z,2.3
2023-03-15T04:56:53.748Z,2.5
2023-03-15T04:58:08.067Z,1.8
2023-03-15T05:00:36.576Z,2.3
2023-03-15T05:01:50.807Z,1.7
2023-03-15T05:03:05.109Z,1.5
2023-03-15T05:04:19.361Z,1.6
2023-03-15T05:05:33.732Z,2
2023-03-15T05:06:47.944Z,2.6
2023-03-15T05:08:02.300Z,2.1
2023-03-15T05:09:16.648Z,2.5
2023-03-15T05:10:30.986Z,2.4
2023-03-15T05:11:45.260Z,2.1
2023-03-15T05:14:13.791Z,2.2
2023-03-15T05:15:28.037Z,1.8
2023-03-15T05:16:42.269Z,2.2
2023-03-15T05:17:56.492Z,2.6
2023-03-15T05:19:10.713Z,1.7
2023-03-15T05:20:25.024Z,1.8
2023-03-15T05:21:39.260Z,1.8
2023-03-15T05:22:53.489Z,2.2
2023-03-15T05:24:07.835Z,2.2
2023-03-15T05:25:22.062Z,2.1
2023-03-15T05:26:36.359Z,2.3
2023-03-15T05:27:50.606Z,1.5
2023-03-15T05:30:19.063Z,2.1
2023-03-15T05:31:33.289Z,2
2023-03-15T05:32:47.579Z,2.2
2023-03-15T05:34:01.825Z,2.1
2023-03-15T05:35:16.043Z,2.3
2023-03-15T05:36:30.269Z,2.1
2023-03-15T05:37:44.644Z,2.4
2023-03-15T05:38:58.936Z,2.3
2023-03-15T05:40:13.189Z,1.7
2023-03-15T05:41:27.408Z,1.6
2023-03-15T05:42:41.778Z,2.6
2023-03-15T05:43:56.002Z,2
2023-03-15T05:45:10.304Z,2.4
2023-03-15T05:46:24.555Z,1.9
2023-03-15T05:47:38.779Z,2.1
2023-03-15T05:48:53.003Z,2.7
2023-03-15T05:50:07.357Z,1.6
2023-03-15T05:51:21.650Z,2.6
2023-03-15T05:52:35.893Z,2.2
2023-03-15T05:55:04.350Z,1.9
2023-03-15T05:56:18.580Z,1.9
2023-03-15T05:57:32.876Z,1.9
2023-03-15T06:00:01.339Z,2.2
2023-03-15T06:01:15.571Z,1.9
2023-03-15T06:02:29.803Z,2.5
2023-03-15T06:03:44.102Z,2.4
2023-03-15T06:04:58.346Z,2.3
2023-03-15T06:07:26.794Z,1.9
2023-03-15T06:08:41.026Z,1.9
2023-03-15T06:09:55.315Z,2.4
2023-03-15T06:11:09.569Z,2.2
2023-03-15T06:12:23.931Z,2.2
2023-03-15T06:13:38.287Z,1.9
2023-03-15T06:14:52.000Z,2.1
2023-03-15T06:16:06.809Z,1.7
2023-03-15T06:17:21.042Z,1.5
2023-03-15T06:18:35.285Z,1.2
2023-03-15T06:19:49.655Z,2.4
2023-03-15T06:21:03.868Z,2.3
2023-03-15T06:22:18.176Z,2.3
2023-03-15T06:23:32.417Z,1.8
2023-03-15T06:24:46.632Z,2.3
2023-03-15T06:26:00.863Z,1.8
2023-03-15T06:27:15.087Z,2.2
2023-03-15T06:28:29.395Z,1.7
2023-03-15T06:29:43.630Z,2.2
2023-03-15T06:30:57.873Z,2.4
2023-03-15T06:32:12.099Z,1.7
2023-03-15T06:33:26.316Z,2.4
2023-03-15T06:34:40.627Z,1.8
2023-03-15T06:35:54.855Z,2.6
2023-03-15T06:37:09.080Z,1.7
2023-03-15T06:38:23.305Z,1.9
2023-03-15T06:39:37.531Z,2.1
2023-03-15T06:40:51.841Z,3
2023-03-15T06:42:06.085Z,2.1
2023-03-15T06:43:20.319Z,2.3
2023-03-15T06:44:34.531Z,1.9
2023-03-15T06:45:48.763Z,1.8
2023-03-15T06:47:03.064Z,2
2023-03-15T06:48:17.313Z,1.8
2023-03-15T06:49:31.679Z,1.2
2023-03-15T06:50:45.909Z,2.5
2023-03-15T06:52:00.245Z,2.2
2023-03-15T06:53:14.556Z,1.9
2023-03-15T06:54:28.800Z,1.7
2023-03-15T06:55:43.014Z,1.9
2023-03-15T06:56:57.240Z,1.9
2023-03-15T06:58:11.472Z,2.1
2023-03-15T06:59:25.772Z,1.8
2023-03-15T07:00:40.023Z,1.9
2023-03-15T07:01:54.239Z,1.6
2023-03-15T07:03:08.470Z,2.1
2023-03-15T07:04:22.843Z,1.8
2023-03-15T07:06:51.378Z,1.8
2023-03-15T07:08:05.619Z,1.5
2023-03-15T07:09:19.834Z,1.5
2023-03-15T07:10:34.067Z,1.8
2023-03-15T07:11:48.357Z,2.3
2023-03-15T07:13:02.607Z,2
2023-03-15T07:14:16.957Z,1.8
2023-03-15T07:15:31.183Z,2.4
2023-03-15T07:16:45.404Z,2.1
2023-03-15T07:17:59.714Z,2.2
2023-03-15T07:19:13.942Z,2.3
2023-03-15T07:20:28.171Z,1.5
2023-03-15T07:21:42.411Z,2.2
2023-03-15T07:22:56.626Z,1.8
2023-03-15T07:24:10.929Z,1.8
2023-03-15T07:25:25.167Z,1.8
2023-03-15T07:26:39.403Z,1.5
2023-03-15T07:27:53.632Z,1.7
2023-03-15T07:29:07.842Z,2.1
2023-03-15T07:30:22.153Z,2.1
2023-03-15T07:31:36.397Z,1.9
2023-03-15T07:32:50.630Z,1.6
2023-03-15T07:34:04.991Z,1.9
2023-03-15T07:35:19.212Z,1.3
2023-03-15T07:36:33.515Z,1.6
2023-03-15T07:37:47.762Z,2
2023-03-15T07:39:01.995Z,2.1
2023-03-15T07:40:16.214Z,1.7
2023-03-15T07:41:30.433Z,1.9
2023-03-15T07:42:44.748Z,1.7
2023-03-15T07:43:58.988Z,2.3
2023-03-15T07:45:13.216Z,2.1
2023-03-15T07:46:27.583Z,1.3
2023-03-15T07:47:41.801Z,2
2023-03-15T07:48:56.104Z,1.9
2023-03-15T07:51:24.564Z,1.4
2023-03-15T07:52:38.792Z,1.6
2023-03-15T07:53:53.169Z,1.4
2023-03-15T07:56:21.709Z,1.6
2023-03-15T07:57:35.929Z,1.6
2023-03-15T07:58:50.169Z,1.3
2023-03-15T08:00:04.388Z,1.7
2023-03-15T08:01:18.699Z,2.4
2023-03-15T08:02:32.935Z,1.6
2023-03-15T08:03:47.151Z,1.7
2023-03-15T08:05:01.384Z,1.5
2023-03-15T08:07:29.921Z,1.6
2023-03-15T08:08:44.159Z,1.5
2023-03-15T08:09:58.378Z,1.9
2023-03-15T08:11:12.738Z,1.9
2023-03-15T08:12:26.966Z,1.7
2023-03-15T08:13:41.252Z,2
2023-03-15T08:14:55.000Z,2.3
2023-03-15T08:16:09.734Z,1.9
2023-03-15T08:17:23.947Z,1.6
2023-03-15T08:18:38.171Z,2.2
2023-03-15T08:21:06.729Z,2
2023-03-15T08:22:20.956Z,1.1
2023-03-15T08:23:35.324Z,2.3
2023-03-15T08:24:49.545Z,1.9
2023-03-15T08:26:03.847Z,1.8
2023-03-15T08:27:18.083Z,1.9
2023-03-15T08:28:32.454Z,1.9
2023-03-15T08:29:46.675Z,1.9
2023-03-15T08:31:00.901Z,2.3
2023-03-15T08:33:29.442Z,2.1
2023-03-15T08:34:43.678Z,1.9
2023-03-15T08:35:58.025Z,2.2
2023-03-15T08:37:12.249Z,2.1
2023-03-15T08:38:26.561Z,2.4
2023-03-15T08:39:40.795Z,2
2023-03-15T08:40:55.014Z,2.5
2023-03-15T08:42:09.251Z,1.5
2023-03-15T08:43:23.472Z,1.6
2023-03-15T08:44:37.765Z,1.7
2023-03-15T08:45:52.020Z,1.6
2023-03-15T08:47:06.245Z,1.5
2023-03-15T08:48:20.463Z,1.6
2023-03-15T08:49:34.685Z,1.8
2023-03-15T08:50:48.995Z,2.2
2023-03-15T08:52:03.234Z,2.4
2023-03-15T08:53:17.585Z,2.3
2023-03-15T08:54:31.825Z,2.3
2023-03-15T08:55:46.189Z,1.5
2023-03-15T08:57:00.487Z,1.8
2023-03-15T08:58:14.720Z,1.7
2023-03-15T08:59:28.961Z,1.6
2023-03-15T09:00:43.303Z,2.1
2023-03-15T09:01:57.538Z,2
2023-03-15T09:03:11.819Z,1.7
2023-03-15T09:04:26.073Z,2.1
2023-03-15T09:05:40.434Z,2
2023-03-15T09:06:54.662Z,2.1
2023-03-15T09:08:09.025Z,1.8
2023-03-15T09:10:37.566Z,2.4
2023-03-15T09:13:05.999Z,1.9
2023-03-15T09:14:20.235Z,1.7
2023-03-15T09:15:34.529Z,2.6
2023-03-15T09:16:48.782Z,2.4
2023-03-15T09:18:03.004Z,1.7
2023-03-15T09:21:45.762Z,1.9
2023-03-15T09:23:00.002Z,1.8
2023-03-15T09:25:28.438Z,2.5
2023-03-15T09:27:56.982Z,1.7
2023-03-15T09:30:25.447Z,1.7
2023-03-15T09:32:53.889Z,1.8
2023-03-15T09:34:08.196Z,1.5
2023-03-15T09:36:36.652Z,1.4
2023-03-15T09:37:50.890Z,1.7
2023-03-15T09:39:05.109Z,1.8
2023-03-15T09:41:33.661Z,1.7
2023-03-15T09:42:48.020Z,1.6
2023-03-15T09:45:16.474Z,1.6
2023-03-15T09:46:30.770Z,1.7
2023-03-15T09:47:45.018Z,1.7
2023-03-15T09:50:13.475Z,1.6
2023-03-15T09:51:27.809Z,1.5
2023-03-15T09:52:42.111Z,1.2
2023-03-15T09:53:56.366Z,1.4
2023-03-15T09:55:10.592Z,1.6
2023-03-15T09:57:39.045Z,1.4
2023-03-15T09:58:53.329Z,1.7
2023-03-15T10:00:07.569Z,1.6
2023-03-15T10:01:21.796Z,1.5
2023-03-15T10:02:36.025Z,1.7
2023-03-15T10:05:04.552Z,1.9
2023-03-15T10:06:18.800Z,1.7
2023-03-15T10:07:33.031Z,1.7
2023-03-15T10:10:01.484Z,1.9
2023-03-15T10:11:15.768Z,1.6
2023-03-15T10:12:30.021Z,2.2
2023-03-15T10:14:58.476Z,1.5
2023-03-15T10:16:12.698Z,1.9
2023-03-15T10:17:26.997Z,1.8
2023-03-15T10:18:41.226Z,1.6
2023-03-15T10:19:55.465Z,1.6
2023-03-15T10:22:23.916Z,1.9
2023-03-15T10:23:38.218Z,2.2
2023-03-15T10:24:52.459Z,1.9
2023-03-15T10:27:20.910Z,1.9
2023-03-15T10:29:49.425Z,1.8
2023-03-15T10:31:03.681Z,1.4
2023-03-15T10:32:17.903Z,1.7
2023-03-15T10:33:32.133Z,1.6
2023-03-15T10:34:46.356Z,1.8
2023-03-15T10:36:00.651Z,1.5
2023-03-15T10:37:14.949Z,1.8
2023-03-15T10:38:28.291Z,1.9
2023-03-15T10:39:42.570Z,1.6
2023-03-15T10:40:56.869Z,1.4
2023-03-15T10:42:11.142Z,2.1
2023-03-15T10:43:24.509Z,1.6
2023-03-15T10:44:37.827Z,1.6
2023-03-15T10:45:52.116Z,1.4
2023-03-15T10:47:06.407Z,1.6
2023-03-15T10:48:20.691Z,1.6
2023-03-15T10:49:34.959Z,1.6
2023-03-15T10:50:49.276Z,1.1
2023-03-15T10:52:03.552Z,1.5
2023-03-15T10:53:16.904Z,1
2023-03-15T10:54:30.226Z,2
2023-03-15T10:56:58.795Z,1.7
2023-03-15T10:58:13.089Z,1.1
2023-03-15T10:59:27.371Z,0.9
2023-03-15T11:00:41.666Z,1
2023-03-15T11:01:55.949Z,1.2
2023-03-15T11:03:09.252Z,1.7
2023-03-15T11:05:37.763Z,1.1
2023-03-15T11:06:52.013Z,1.6
2023-03-15T11:08:06.243Z,1.7
2023-03-15T11:09:20.467Z,1.9
2023-03-15T11:10:34.687Z,2.7
2023-03-15T11:11:48.991Z,1.5
2023-03-15T11:13:03.219Z,1.6
2023-03-15T11:14:17.445Z,1.4
2023-03-15T11:15:31.687Z,1.5
2023-03-15T11:16:45.905Z,1.3
2023-03-15T11:18:00.215Z,1.2
2023-03-15T11:19:14.436Z,1.6
2023-03-15T11:20:28.669Z,1.4
2023-03-15T11:22:57.118Z,1.8
2023-03-15T11:24:11.420Z,1.5
2023-03-15T11:25:25.662Z,1.7
2023-03-15T11:26:39.881Z,1.3
2023-03-15T11:27:54.106Z,1.4
2023-03-15T11:30:22.652Z,1.2
2023-03-15T11:31:36.896Z,1.8
2023-03-15T11:32:51.120Z,1.8
2023-03-15T11:34:05.406Z,1.5
2023-03-15T11:35:18.745Z,1.8
2023-03-15T11:36:33.010Z,1.6
2023-03-15T11:37:47.310Z,1.6
2023-03-15T11:39:01.593Z,1.7
2023-03-15T11:41:30.178Z,1.3
2023-03-15T11:42:44.447Z,1
2023-03-15T11:43:58.734Z,1.1
2023-03-15T11:45:13.026Z,1.3
2023-03-15T11:46:27.305Z,1.7
2023-03-15T11:47:41.592Z,1.4
2023-03-15T11:48:55.887Z,1.4
2023-03-15T11:51:23.529Z,1.5
2023-03-15T11:52:37.839Z,1.5
2023-03-15T11:53:52.111Z,1.8
2023-03-15T11:55:05.461Z,1.6
2023-03-15T11:56:18.799Z,1.4
2023-03-15T11:57:33.082Z,2
2023-03-15T12:00:00.596Z,1.5
2023-03-15T12:01:14.907Z,1.9
2023-03-15T12:03:43.368Z,1.4
2023-03-15T12:04:57.597Z,1.2
2023-03-15T12:06:11.823Z,1.1
2023-03-15T12:07:26.126Z,1
2023-03-15T12:08:40.364Z,1.2
2023-03-15T12:09:54.586Z,1.3
2023-03-15T12:11:08.817Z,1.8
2023-03-15T12:12:23.039Z,1.7
2023-03-15T12:13:37.342Z,1.5
2023-03-15T12:14:51.573Z,1.1
2023-03-15T12:16:05.813Z,1.6
2023-03-15T12:17:20.027Z,1.6
2023-03-15T12:18:34.264Z,1.9
2023-03-15T12:19:48.564Z,1.7
2023-03-15T12:21:02.800Z,1.8
2023-03-15T12:22:17.024Z,1.7
2023-03-15T12:23:31.249Z,1.6
2023-03-15T12:24:45.479Z,1.5
2023-03-15T12:25:59.768Z,1.1
2023-03-15T12:27:14.021Z,1.4
2023-03-15T12:28:28.244Z,1.8
2023-03-15T12:29:42.524Z,1.4
2023-03-15T12:30:55.867Z,1.2
2023-03-15T12:32:10.142Z,0.8
2023-03-15T12:33:23.443Z,1.3
2023-03-15T12:34:37.657Z,1.6
2023-03-15T12:35:51.969Z,1.8
2023-03-15T12:37:06.203Z,1
2023-03-15T12:38:20.439Z,1
2023-03-15T12:39:34.655Z,1.3
2023-03-15T12:40:48.887Z,1.6
2023-03-15T12:42:03.187Z,1.5
2023-03-15T12:43:17.423Z,1.6
2023-03-15T12:44:31.658Z,1.4
2023-03-15T12:45:45.878Z,1.6
2023-03-15T12:47:00.112Z,1.8
2023-03-15T12:49:28.646Z,1.3
2023-03-15T12:51:57.090Z,1.1
2023-03-15T12:53:11.333Z,1.6
2023-03-15T12:54:25.618Z,1.7
2023-03-15T12:55:39.870Z,1.1
2023-03-15T12:56:54.085Z,1.7
2023-03-15T12:59:22.541Z,1.7
2023-03-15T13:00:36.840Z,1.7
2023-03-15T13:01:51.079Z,1.7
2023-03-15T13:04:19.589Z,1.7
2023-03-15T13:05:32.945Z,1.7
2023-03-15T13:06:47.215Z,1.5
2023-03-15T13:08:01.507Z,1.7
2023-03-15T13:09:14.808Z,1.7
2023-03-15T13:10:29.097Z,2
2023-03-15T13:11:43.353Z,1.6
2023-03-15T13:12:57.563Z,1.4
2023-03-15T13:14:11.790Z,1.6
2023-03-15T13:15:26.030Z,1.6
2023-03-15T13:16:40.333Z,2
2023-03-15T13:17:54.570Z,1.7
2023-03-15T13:19:08.794Z,1.8
2023-03-15T13:20:23.008Z,1.5
2023-03-15T13:21:37.249Z,1.5
2023-03-15T13:22:51.550Z,1.7
2023-03-15T13:24:05.782Z,1.6
2023-03-15T13:25:20.003Z,1.3
2023-03-15T13:26:34.238Z,1
2023-03-15T13:27:48.464Z,1.1
2023-03-15T13:29:02.773Z,1.6
2023-03-15T13:30:17.015Z,1.7
2023-03-15T13:31:31.382Z,1.4
2023-03-15T13:32:45.605Z,1.6
2023-03-15T13:33:59.822Z,2
2023-03-15T13:35:14.128Z,2.4
2023-03-15T13:36:28.368Z,1.3
2023-03-15T13:37:42.594Z,1.7
2023-03-15T13:38:56.824Z,1.7
2023-03-15T13:40:11.049Z,1.7
2023-03-15T13:41:25.350Z,1.7
2023-03-15T13:42:39.596Z,1.7
2023-03-15T13:43:53.823Z,1.1
2023-03-15T13:45:08.043Z,1
2023-03-15T13:47:36.555Z,1.1
2023-03-15T13:48:50.798Z,1.4
2023-03-15T13:50:05.038Z,1.6
2023-03-15T13:51:19.249Z,1.7
2023-03-15T13:52:33.485Z,2
2023-03-15T13:53:47.787Z,1.3
2023-03-15T13:55:02.034Z,1
2023-03-15T13:56:16.260Z,1.2
2023-03-15T13:57:30.469Z,1.1
2023-03-15T13:58:44.704Z,0.9
2023-03-15T13:59:59.009Z,0.9
2023-03-15T14:01:13.244Z,1.2
2023-03-15T14:02:27.537Z,1.3
2023-03-15T14:03:40.859Z,1
2023-03-15T14:04:55.162Z,1.3
2023-03-15T14:06:09.440Z,0.9
2023-03-15T14:08:38.021Z,1.1
2023-03-15T14:09:51.316Z,0.8
2023-03-15T14:11:05.543Z,1.1
2023-03-15T14:12:19.775Z,1.7
2023-03-15T14:13:33.999Z,0.9
2023-03-15T14:14:48.234Z,1.6
2023-03-15T14:16:02.519Z,1.7
2023-03-15T14:17:16.769Z,2
2023-03-15T14:18:31.002Z,1.7
2023-03-15T14:19:45.219Z,2.1
2023-03-15T14:20:59.440Z,2.1
2023-03-15T14:22:13.749Z,1.7
2023-03-15T14:23:27.993Z,1
2023-03-15T14:24:42.209Z,1.7
2023-03-15T14:25:56.449Z,1.5
2023-03-15T14:27:10.671Z,1.6
2023-03-15T14:28:24.969Z,1
2023-03-15T14:29:39.205Z,1.1
2023-03-15T14:30:53.434Z,1.1
2023-03-15T14:32:07.654Z,0.8
2023-03-15T14:33:21.885Z,1.5
2023-03-15T14:34:36.189Z,1.2
2023-03-15T14:35:50.430Z,1.3
2023-03-15T14:37:04.664Z,1.3
2023-03-15T14:38:18.885Z,1.1
2023-03-15T14:39:33.116Z,1.3
2023-03-15T14:40:47.461Z,1.5
2023-03-15T14:42:01.756Z,1.6
2023-03-15T14:43:15.090Z,1.3
2023-03-15T14:44:29.359Z,1.3
2023-03-15T14:45:43.659Z,1.2
2023-03-15T14:46:57.944Z,1.7
2023-03-15T14:48:11.245Z,1.9
2023-03-15T14:49:25.474Z,1.6
2023-03-15T14:50:39.768Z,1.7
2023-03-15T14:51:54.019Z,1.7
2023-03-15T14:53:08.247Z,1.6
2023-03-15T14:54:22.463Z,1.8
2023-03-15T14:55:36.699Z,1.6
2023-03-15T14:56:50.992Z,1.7
2023-03-15T14:58:05.234Z,1.8
2023-03-15T14:59:19.457Z,1.6
2023-03-15T15:00:33.676Z,1.6
2023-03-15T15:01:47.907Z,1.8
2023-03-15T15:03:02.206Z,1.8
2023-03-15T15:04:16.441Z,1.8
2023-03-15T15:05:30.682Z,1.9
2023-03-15T15:06:44.901Z,1.4
2023-03-15T15:07:59.129Z,1.7
2023-03-15T15:09:13.432Z,1.8
2023-03-15T15:10:27.668Z,0.8
2023-03-15T15:11:41.899Z,0.8
2023-03-15T15:12:56.123Z,1
2023-03-15T15:14:10.347Z,1
2023-03-15T15:15:24.657Z,0.9
2023-03-15T15:16:38.883Z,0.8
2023-03-15T15:17:53.120Z,1
2023-03-15T15:19:07.410Z,0.6
2023-03-15T15:20:20.730Z,0.8
2023-03-15T15:21:35.020Z,1.2
2023-03-15T15:22:49.309Z,0.9
2023-03-15T15:24:02.588Z,0.9
2023-03-15T15:25:16.889Z,1.3
2023-03-15T15:26:31.140Z,2.1
2023-03-15T15:27:45.362Z,1.6
2023-03-15T15:28:59.578Z,1.8
2023-03-15T15:30:13.810Z,1.9
2023-03-15T15:31:28.114Z,1.6
2023-03-15T15:32:42.362Z,1.6
2023-03-15T15:33:56.572Z,1.8
2023-03-15T15:35:10.812Z,1.8
2023-03-15T15:36:25.024Z,1.6
2023-03-15T15:37:39.323Z,1.9
2023-03-15T15:38:53.571Z,1.8
2023-03-15T15:40:07.796Z,1.2
2023-03-15T15:41:22.025Z,0.8
2023-03-15T15:42:36.249Z,1.5
2023-03-15T15:43:50.563Z,1.5
2023-03-15T15:45:04.804Z,1.6
2023-03-15T15:47:33.237Z,1.4
2023-03-15T15:48:47.477Z,1.6
2023-03-15T15:50:01.777Z,5.4
2023-03-15T15:51:16.000Z,2.4
2023-03-15T15:52:30.243Z,1.6
2023-03-15T15:53:44.464Z,1.6
2023-03-15T15:54:58.747Z,1.7
2023-03-15T15:56:13.061Z,1.4
2023-03-15T15:57:27.326Z,1.6
2023-03-15T15:58:40.628Z,1.6
2023-03-15T15:59:54.847Z,1.8
2023-03-15T16:01:09.157Z,1.5
2023-03-15T16:02:23.407Z,1.1
2023-03-15T16:03:37.628Z,1
2023-03-15T16:04:51.848Z,0.9
2023-03-15T16:06:06.072Z,0.8
2023-03-15T16:07:20.366Z,1
2023-03-15T16:08:34.624Z,1.2
2023-03-15T16:09:48.853Z,1.3
2023-03-15T16:11:03.070Z,0.8
2023-03-15T16:13:31.586Z,1
2023-03-15T16:14:45.829Z,1.1
2023-03-15T16:16:00.062Z,0.8
2023-03-15T16:17:14.284Z,0.7
2023-03-15T16:18:28.510Z,0.9
2023-03-15T16:19:42.818Z,0.9
2023-03-15T16:20:57.055Z,0.9
2023-03-15T16:22:11.274Z,1.2
2023-03-15T16:23:25.513Z,1.1
2023-03-15T16:24:39.740Z,0.8
2023-03-15T16:25:54.045Z,0.9
2023-03-15T16:27:08.269Z,0.8
2023-03-15T16:28:22.512Z,0.7
2023-03-15T16:29:36.782Z,0.8
2023-03-15T16:30:51.155Z,0.9
2023-03-15T16:32:05.455Z,1.1
2023-03-15T16:33:19.692Z,1
2023-03-15T16:34:33.922Z,0.7
2023-03-15T16:35:48.147Z,0.8
2023-03-15T16:37:02.386Z,0.8
2023-03-15T16:38:16.682Z,0.9
2023-03-15T16:39:30.913Z,0.8
2023-03-15T16:40:45.140Z,1.1
2023-03-15T16:41:59.377Z,0.7
2023-03-15T16:43:13.597Z,0.8
2023-03-15T16:44:27.906Z,0.7
2023-03-15T16:45:42.147Z,0.9
2023-03-15T16:46:56.362Z,0.8
2023-03-15T16:48:10.597Z,1.5
2023-03-15T16:49:24.822Z,1.2
2023-03-15T16:50:39.126Z,1.6
2023-03-15T16:51:53.364Z,0.8
2023-03-15T16:53:07.593Z,1.2
2023-03-15T16:54:21.824Z,1.3
2023-03-15T16:55:36.049Z,0.8
2023-03-15T16:56:50.340Z,1
2023-03-15T16:58:04.578Z,1.1
2023-03-15T16:59:18.806Z,0.9
2023-03-15T17:00:33.031Z,1.2
2023-03-15T17:01:47.321Z,0.9
2023-03-15T17:03:01.628Z,1.6
2023-03-15T17:04:15.899Z,1.2
2023-03-15T17:05:29.198Z,0.7
2023-03-15T17:06:43.428Z,0.9
2023-03-15T17:07:57.732Z,1.1
2023-03-15T17:09:11.966Z,1.2
2023-03-15T17:10:26.184Z,0.8
2023-03-15T17:11:40.416Z,1.7
2023-03-15T17:12:54.647Z,0.9
2023-03-15T17:14:08.937Z,0.9
2023-03-15T17:15:23.177Z,1.6
2023-03-15T17:16:37.414Z,1
2023-03-15T17:17:51.642Z,0.9
2023-03-15T17:19:05.867Z,1.3
2023-03-15T17:20:20.162Z,0.8
2023-03-15T17:21:34.413Z,1.1
2023-03-15T17:22:48.641Z,0.8
2023-03-15T17:24:02.862Z,1.2
2023-03-15T17:25:17.091Z,1.3
2023-03-15T17:26:31.393Z,1.1
2023-03-15T17:27:45.631Z,1.1
2023-03-15T17:28:59.850Z,1
2023-03-15T17:30:14.088Z,1
2023-03-15T17:31:28.299Z,1
2023-03-15T17:32:42.600Z,0.8
2023-03-15T17:33:56.855Z,1
2023-03-15T17:35:11.072Z,1.9
2023-03-15T17:36:25.365Z,1.4
2023-03-15T17:37:38.694Z,0.9
2023-03-15T17:38:52.975Z,1
2023-03-15T17:40:06.276Z,1.6
2023-03-15T17:41:20.503Z,0.9
2023-03-15T17:42:34.810Z,1.8
2023-03-15T17:45:03.270Z,1
2023-03-15T17:46:17.490Z,0.6
2023-03-15T17:47:31.728Z,0.8
2023-03-15T17:48:46.035Z,1.1
2023-03-15T17:50:00.269Z,0.9
2023-03-15T17:51:14.488Z,0.9
2023-03-15T17:52:28.723Z,0.7
2023-03-15T17:53:42.955Z,0.8
2023-03-15T17:54:57.239Z,0.9
2023-03-15T17:56:11.477Z,0.9
2023-03-15T17:57:25.712Z,0.8
2023-03-15T17:58:39.942Z,0.7
2023-03-15T17:59:54.163Z,0.9
2023-03-15T18:01:08.574Z,1.2
2023-03-15T18:02:22.842Z,0.9
2023-03-15T18:03:37.071Z,1.1
2023-03-15T18:04:51.301Z,1
2023-03-15T18:06:05.527Z,0.8
2023-03-15T18:07:19.824Z,1.1
2023-03-15T18:08:34.057Z,1.2
2023-03-15T18:09:48.293Z,1.6
2023-03-15T18:11:02.639Z,1.1
2023-03-15T18:12:15.975Z,1.3
2023-03-15T18:13:30.307Z,0.9
2023-03-15T18:14:44.578Z,0.8
2023-03-15T18:15:58.871Z,0.7
2023-03-15T18:18:27.592Z,1
2023-03-15T18:19:41.868Z,1.2
2023-03-15T18:20:56.151Z,0.7
2023-03-15T18:22:10.567Z,1.3
2023-03-15T18:23:24.885Z,1
2023-03-15T18:24:39.170Z,1.2
2023-03-15T18:25:53.447Z,1.1
2023-03-15T18:27:07.862Z,1.6
2023-03-15T18:28:22.187Z,1.3